Time;durP1;ratioP1;P1;durP2;ratioP2;P2;SDS_P1;SDS_P2;PMS_P1;PMS_P2;Temp;Humidity;BMP_temperature;BMP_pressure;BME280_temperature;BME280_humidity;BME280_pressure;Samples;Min_cycle;Max_cycle;Signal;HPM_P1;HPM_P2
2023/11/28 00:00:37;;;;;;;15.57;11.40;;;;;21.60;98338.00;;;;2070462;28;20288;-57
2023/11/28 00:01:38;;;;;;;15.63;11.50;;;;;21.60;98343.00;;;;2070513;28;20210;-56
2023/11/28 00:02:39;;;;;;;17.50;11.80;;;;;21.60;98341.00;;;;2070434;28;20214;-56
2023/11/28 00:03:39;;;;;;;17.70;12.87;;;;;21.60;98340.00;;;;2069907;28;20527;-56
2023/11/28 00:04:39;;;;;;;16.10;10.93;;;;;21.60;98341.00;;;;2058288;28;20481;-56
2023/11/28 00:05:40;;;;;;;28.33;12.10;;;;;21.60;98341.00;;;;2061524;28;20225;-57
2023/11/28 00:06:41;;;;;;;18.60;11.13;;;;;21.60;98345.00;;;;2067546;28;20210;-57
2023/11/28 00:07:41;;;;;;;18.10;10.52;;;;;21.60;98342.00;;;;2069960;28;20353;-57
2023/11/28 00:08:42;;;;;;;27.03;9.77;;;;;21.60;98349.00;;;;2070659;28;20325;-57
2023/11/28 00:09:42;;;;;;;12.33;8.27;;;;;21.60;98353.00;;;;2059452;28;20245;-58
2023/11/28 00:10:43;;;;;;;22.30;9.90;;;;;21.60;98350.00;;;;2062717;28;20226;-58
2023/11/28 00:11:43;;;;;;;11.33;8.00;;;;;21.60;98352.00;;;;2067268;28;20210;-58
2023/11/28 00:12:44;;;;;;;16.67;8.93;;;;;21.60;98133.00;;;;2065966;28;20237;-59
2023/11/28 00:13:44;;;;;;;13.53;8.87;;;;;21.60;98356.00;;;;2070463;28;20232;-57
2023/11/28 00:14:45;;;;;;;15.30;8.50;;;;;21.60;98354.00;;;;2060373;28;20237;-57
2023/11/28 00:15:46;;;;;;;19.20;9.23;;;;;21.60;98343.00;;;;2070599;28;20206;-57
2023/11/28 00:16:46;;;;;;;15.30;8.23;;;;;21.60;98361.00;;;;2069093;28;20466;-58
2023/11/28 00:17:46;;;;;;;10.73;7.80;;;;;21.60;98350.00;;;;2069249;28;20206;-57
2023/11/28 00:18:48;;;;;;;12.07;8.07;;;;;21.60;98355.00;;;;2052295;28;20276;-58
2023/11/28 00:19:48;;;;;;;10.70;8.10;;;;;21.60;98353.00;;;;2068409;28;20206;-57
2023/11/28 00:20:49;;;;;;;10.43;7.60;;;;;21.50;98349.00;;;;2064623;28;20618;-57
2023/11/28 00:21:49;;;;;;;10.27;7.40;;;;;21.50;98352.00;;;;2069973;28;20217;-57
2023/11/28 00:22:50;;;;;;;8.30;6.53;;;;;21.50;98355.00;;;;2067822;28;20218;-57
2023/11/28 00:23:50;;;;;;;10.97;7.50;;;;;21.50;98363.00;;;;2059691;28;20574;-57
2023/11/28 00:24:51;;;;;;;9.87;6.30;;;;;21.50;98354.00;;;;2069976;28;20230;-57
2023/11/28 00:25:51;;;;;;;14.73;6.63;;;;;21.50;98356.00;;;;2067434;28;20202;-58
2023/11/28 00:26:52;;;;;;;11.10;7.60;;;;;21.50;98353.00;;;;2068030;28;20207;-57
2023/11/28 00:27:52;;;;;;;11.35;6.80;;;;;21.00;98353.00;;;;2068467;28;20686;-58
2023/11/28 00:28:53;;;;;;;10.87;6.03;;;;;21.50;98362.00;;;;2053832;28;20364;-58
2023/11/28 00:29:53;;;;;;;8.03;5.83;;;;;21.50;98362.00;;;;2070449;28;20218;-57
2023/11/28 00:30:54;;;;;;;7.77;5.93;;;;;21.50;98364.00;;;;2067899;28;20206;-58
2023/11/28 00:31:54;;;;;;;9.80;6.30;;;;;21.50;98369.00;;;;2070564;28;20218;-57
2023/11/28 00:32:54;;;;;;;7.17;5.50;;;;;21.50;98369.00;;;;2067625;28;20217;-58
2023/11/28 00:33:55;;;;;;;9.00;6.00;;;;;21.50;98370.00;;;;2058955;28;20244;-58
2023/11/28 00:34:55;;;;;;;8.80;6.10;;;;;21.50;98372.00;;;;2067981;28;20218;-58
2023/11/28 00:35:55;;;;;;;9.37;5.67;;;;;21.50;98379.00;;;;2063407;28;20218;-58
2023/11/28 00:36:56;;;;;;;8.63;5.37;;;;;21.50;98374.00;;;;2060564;28;20257;-58
2023/11/28 00:37:57;;;;;;;6.23;5.07;;;;;21.50;98382.00;;;;2056597;28;20306;-58
2023/11/28 00:38:57;;;;;;;9.82;5.88;;;;;21.50;98378.00;;;;2066951;28;20689;-58
2023/11/28 00:39:58;;;;;;;8.50;5.60;;;;;21.50;98373.00;;;;2075507;28;20225;-57
2023/11/28 00:40:59;;;;;;;7.50;5.33;;;;;21.50;98379.00;;;;2069429;28;20313;-57
2023/11/28 00:42:03;;;;;;;6.90;5.10;;;;;21.50;98376.00;;;;2070595;28;20492;-57
2023/11/28 00:43:05;;;;;;;6.88;5.50;;;;;21.50;98380.00;;;;2070123;28;20229;-58
2023/11/28 00:44:06;;;;;;;8.30;4.57;;;;;21.40;98391.00;;;;2051919;28;20219;-57
2023/11/28 00:45:07;;;;;;;6.70;4.90;;;;;21.40;98377.00;;;;2060622;28;20218;-56
2023/11/28 00:46:09;;;;;;;7.27;5.20;;;;;21.50;98383.00;;;;2069498;28;20702;-57
2023/11/28 00:47:10;;;;;;;6.10;4.20;;;;;21.40;98383.00;;;;2067027;28;20250;-58
2023/11/28 00:48:10;;;;;;;5.53;4.80;;;;;21.40;98393.00;;;;2069716;28;20222;-56
2023/11/28 00:49:12;;;;;;;5.63;4.60;;;;;21.40;98391.00;;;;2057091;28;20223;-57
2023/11/28 00:50:13;;;;;;;6.15;4.93;;;;;21.40;98381.00;;;;2070254;28;20229;-58
2023/11/28 00:51:17;;;;;;;7.33;5.00;;;;;21.30;98387.00;;;;2069712;28;20252;-58
2023/11/28 00:52:17;;;;;;;9.15;4.88;;;;;21.40;98391.00;;;;2069866;28;20472;-57
2023/11/28 00:53:17;;;;;;;6.80;4.53;;;;;21.40;98391.00;;;;2069994;28;20246;-57
2023/11/28 00:54:18;;;;;;;6.20;4.60;;;;;21.40;98399.00;;;;2060263;28;20254;-57
2023/11/28 00:55:18;;;;;;;6.80;4.07;;;;;21.40;98401.00;;;;2069668;28;20210;-56
2023/11/28 00:56:19;;;;;;;5.00;4.20;;;;;21.40;98401.00;;;;2070191;28;20219;-56
2023/11/28 00:57:20;;;;;;;5.47;4.27;;;;;21.40;98410.00;;;;2071008;28;20217;-55
2023/11/28 00:58:20;;;;;;;11.17;4.57;;;;;21.40;98411.00;;;;2070594;28;20461;-56
2023/11/28 00:59:21;;;;;;;6.27;4.40;;;;;21.40;98415.00;;;;2061208;28;20218;-56
2023/11/28 01:00:21;;;;;;;8.20;4.10;;;;;21.40;98416.00;;;;2070995;28;20458;-56
2023/11/28 01:01:22;;;;;;;6.20;4.27;;;;;21.40;98420.00;;;;2070847;28;20218;-56
2023/11/28 01:02:22;;;;;;;7.60;3.93;;;;;21.40;98474.00;;;;2065936;28;20227;-55
2023/11/28 01:03:22;;;;;;;8.23;3.63;;;;;21.40;98422.00;;;;2070872;28;20768;-56
2023/11/28 01:04:23;;;;;;;6.80;3.60;;;;;21.40;98474.00;;;;2057258;28;20717;-56
2023/11/28 01:05:23;;;;;;;7.40;3.67;;;;;21.40;98425.00;;;;2066961;28;20758;-56
2023/11/28 01:06:23;;;;;;;6.00;3.10;;;;;21.40;98418.00;;;;2064986;28;20718;-56
2023/11/28 01:07:24;;;;;;;5.10;3.20;;;;;21.40;98434.00;;;;2066925;28;20344;-56
2023/11/28 01:08:24;;;;;;;5.43;3.60;;;;;21.40;98439.00;;;;2070981;28;20752;-56
2023/11/28 01:09:24;;;;;;;4.83;2.90;;;;;21.40;98431.00;;;;2060220;28;20730;-56
2023/11/28 01:10:25;;;;;;;5.47;3.40;;;;;21.40;98444.00;;;;2079214;28;20694;-55
2023/11/28 01:11:25;;;;;;;6.20;3.47;;;;;21.40;98440.00;;;;2077007;28;20236;-56
2023/11/28 01:12:25;;;;;;;5.50;3.30;;;;;21.40;98448.00;;;;2070244;28;20238;-56
2023/11/28 01:13:26;;;;;;;4.63;2.47;;;;;21.30;98439.00;;;;2071086;28;20301;-55
2023/11/28 01:14:28;;;;;;;4.90;3.07;;;;;21.30;98449.00;;;;2063206;28;20228;-56
2023/11/28 01:15:28;;;;;;;3.10;2.35;;;;;21.30;98448.00;;;;2072222;28;20215;-55
2023/11/28 01:16:29;;;;;;;5.50;2.90;;;;;21.30;98448.00;;;;2070298;28;20210;-55
2023/11/28 01:17:29;;;;;;;4.07;2.67;;;;;21.30;98457.00;;;;2070992;28;20237;-56
2023/11/28 01:18:30;;;;;;;4.67;2.77;;;;;21.30;98456.00;;;;2070358;28;20218;-56
2023/11/28 01:19:30;;;;;;;5.90;3.20;;;;;21.30;98460.00;;;;2060332;28;20273;-55
2023/11/28 01:20:31;;;;;;;3.13;2.40;;;;;21.30;98458.00;;;;2070554;28;20865;-56
2023/11/28 01:21:31;;;;;;;3.33;2.10;;;;;21.30;98466.00;;;;2066992;28;20294;-56
2023/11/28 01:22:31;;;;;;;4.23;2.53;;;;;21.30;98470.00;;;;2069942;28;20210;-55
2023/11/28 01:23:32;;;;;;;3.63;2.63;;;;;21.30;98473.00;;;;2068203;28;20269;-56
2023/11/28 01:24:33;;;;;;;4.10;2.87;;;;;21.30;98469.00;;;;2059871;28;20317;-55
2023/11/28 01:25:33;;;;;;;8.82;2.50;;;;;21.30;98469.00;;;;2070132;28;20746;-55
2023/11/28 01:26:34;;;;;;;4.63;2.80;;;;;21.30;98479.00;;;;2068746;28;20221;-56
2023/11/28 01:27:34;;;;;;;3.20;2.40;;;;;21.20;98482.00;;;;2070941;28;20407;-55
2023/11/28 01:28:34;;;;;;;3.80;2.60;;;;;21.20;98484.00;;;;2071400;28;20214;-56
2023/11/28 01:29:35;;;;;;;3.83;1.93;;;;;21.20;98495.00;;;;2055849;28;20210;-56
2023/11/28 01:30:35;;;;;;;4.47;2.23;;;;;21.20;98520.00;;;;2069670;28;20305;-56
2023/11/28 01:31:36;;;;;;;2.00;1.57;;;;;21.20;98494.00;;;;2074844;28;20699;-55
2023/11/28 01:32:39;;;;;;;2.67;2.03;;;;;21.20;98515.00;;;;2069679;28;20202;-55
2023/11/28 01:33:43;;;;;;;2.88;2.13;;;;;21.20;98503.00;;;;2061695;28;20222;-56
2023/11/28 01:34:44;;;;;;;3.25;2.15;;;;;21.20;98497.00;;;;2058834;28;20230;-56
2023/11/28 01:35:44;;;;;;;2.73;2.20;;;;;21.20;98504.00;;;;2067457;28;20293;-56
2023/11/28 01:36:45;;;;;;;4.73;2.43;;;;;21.20;98509.00;;;;2066416;28;20241;-55
2023/11/28 01:37:46;;;;;;;4.40;1.97;;;;;21.20;98512.00;;;;2070865;28;20210;-55
2023/11/28 01:38:46;;;;;;;3.40;1.80;;;;;21.20;98519.00;;;;2061283;28;20602;-56
2023/11/28 01:39:47;;;;;;;2.63;1.80;;;;;21.20;98514.00;;;;2065975;28;20221;-56
2023/11/28 01:40:50;;;;;;;4.13;1.83;;;;;21.20;98528.00;;;;2070788;28;20946;-56
2023/11/28 01:41:50;;;;;;;2.53;1.70;;;;;21.20;98528.00;;;;2066773;28;20574;-56
2023/11/28 01:42:51;;;;;;;4.90;2.23;;;;;21.20;98527.00;;;;2070141;28;20217;-55
2023/11/28 01:43:51;;;;;;;2.23;1.77;;;;;21.20;98543.00;;;;2068216;28;20584;-55
2023/11/28 01:44:51;;;;;;;3.10;1.57;;;;;21.20;98536.00;;;;2077364;28;20710;-56
2023/11/28 01:45:52;;;;;;;3.50;2.07;;;;;21.20;98537.00;;;;2076062;28;20256;-55
2023/11/28 01:46:52;;;;;;;13.20;2.73;;;;;21.20;98524.00;;;;2074984;28;20221;-57
2023/11/28 01:47:53;;;;;;;6.17;2.40;;;;;21.20;98540.00;;;;2069310;28;20269;-58
2023/11/28 01:48:54;;;;;;;4.20;1.80;;;;;21.20;98546.00;;;;2061053;28;20230;-57
2023/11/28 01:49:54;;;;;;;4.23;2.03;;;;;21.20;98543.00;;;;2077467;28;21066;-58
2023/11/28 01:50:54;;;;;;;2.73;1.80;;;;;21.20;98547.00;;;;2075800;28;20221;-57
2023/11/28 01:51:55;;;;;;;2.20;1.57;;;;;21.20;98599.00;;;;2068324;28;20683;-57
2023/11/28 01:52:55;;;;;;;3.33;1.53;;;;;21.20;98555.00;;;;2068811;28;20607;-58
2023/11/28 01:53:58;;;;;;;3.83;1.97;;;;;21.10;98542.00;;;;2059155;28;20260;-58
2023/11/28 01:55:00;;;;;;;3.50;2.17;;;;;21.10;98547.00;;;;2059382;28;20314;-57
2023/11/28 01:56:00;;;;;;;3.20;1.67;;;;;21.20;98567.00;;;;2069323;28;20221;-56
2023/11/28 01:57:01;;;;;;;3.20;1.30;;;;;21.20;98574.00;;;;2068761;28;20209;-58
2023/11/28 01:58:01;;;;;;;2.77;1.73;;;;;21.10;98563.00;;;;2068634;28;20207;-57
2023/11/28 01:59:02;;;;;;;2.27;1.33;;;;;21.10;98563.00;;;;2059553;28;20607;-57
2023/11/28 02:00:08;;;;;;;1.90;1.30;;;;;21.20;98564.00;;;;2057928;28;20646;-57
2023/11/28 02:01:09;;;;;;;3.78;1.48;;;;;21.20;98565.00;;;;2060587;28;20496;-57
2023/11/28 02:02:10;;;;;;;2.00;1.30;;;;;21.10;98562.00;;;;2068191;28;20256;-57
2023/11/28 02:03:10;;;;;;;3.63;1.58;;;;;21.20;98559.00;;;;2069466;28;20491;-56
2023/11/28 02:04:11;;;;;;;2.37;1.57;;;;;21.10;98571.00;;;;2050696;28;20946;-58
2023/11/28 02:05:12;;;;;;;2.33;1.33;;;;;21.20;98573.00;;;;2059743;28;20215;-58
2023/11/28 02:06:12;;;;;;;2.35;1.45;;;;;21.10;98570.00;;;;2068650;28;20251;-56
2023/11/28 02:07:14;;;;;;;2.83;1.40;;;;;21.20;98580.00;;;;2067193;28;20218;-58
2023/11/28 02:08:14;;;;;;;4.45;1.30;;;;;21.10;98582.00;;;;2069749;28;20694;-57
2023/11/28 02:09:15;;;;;;;2.73;1.60;;;;;21.10;98596.00;;;;2059787;28;20233;-57
2023/11/28 02:10:15;;;;;;;2.27;1.40;;;;;21.10;98580.00;;;;2070030;28;20230;-58
2023/11/28 02:11:16;;;;;;;2.33;1.10;;;;;20.50;98590.00;;;;2069990;28;20519;-57
2023/11/28 02:12:16;;;;;;;2.00;1.30;;;;;21.10;98589.00;;;;2069659;28;20222;-54
2023/11/28 02:13:16;;;;;;;2.00;1.27;;;;;21.10;98594.00;;;;2069346;28;20249;-56
2023/11/28 02:14:17;;;;;;;1.70;1.20;;;;;21.10;98602.00;;;;2056514;28;20225;-57
2023/11/28 02:15:37;;;;;;;2.87;1.30;;;;;21.10;98592.00;;;;2067286;28;20226;-58
2023/11/28 02:16:37;;;;;;;2.50;1.42;;;;;21.10;98610.00;;;;2068506;28;20682;-58
2023/11/28 02:17:38;;;;;;;1.73;1.17;;;;;21.10;98611.00;;;;2069995;28;20218;-58
2023/11/28 02:18:39;;;;;;;2.50;1.00;;;;;21.10;98603.00;;;;2069498;28;20230;-55
2023/11/28 02:19:39;;;;;;;3.37;1.70;;;;;21.10;98609.00;;;;2057683;28;20218;-56
2023/11/28 02:20:40;;;;;;;1.60;1.20;;;;;21.20;98604.00;;;;2065749;28;20815;-58
2023/11/28 02:21:40;;;;;;;1.50;1.10;;;;;21.20;98611.00;;;;2064093;28;20729;-57
2023/11/28 02:22:40;;;;;;;2.90;1.30;;;;;20.60;98619.00;;;;2069222;28;20221;-58
2023/11/28 02:23:41;;;;;;;3.50;2.47;;;;;21.20;98609.00;;;;2060416;28;20254;-58
2023/11/28 02:24:41;;;;;;;1.87;1.30;;;;;21.20;98673.00;;;;2057649;28;20205;-57
2023/11/28 02:25:50;;;;;;;3.93;1.30;;;;;21.20;98616.00;;;;2067634;28;20674;-57
2023/11/28 02:26:50;;;;;;;5.10;1.65;;;;;21.20;98614.00;;;;2060489;28;20207;-58
2023/11/28 02:27:51;;;;;;;8.33;1.63;;;;;21.10;98620.00;;;;2070116;28;20236;-56
2023/11/28 02:28:52;;;;;;;3.53;1.10;;;;;21.10;98618.00;;;;2054004;28;20222;-56
2023/11/28 02:29:53;;;;;;;12.73;1.70;;;;;21.10;98620.00;;;;2069001;28;20237;-56
2023/11/28 02:30:55;;;;;;;3.37;1.10;;;;;21.10;98624.00;;;;2067356;28;20796;-56
2023/11/28 02:31:56;;;;;;;4.30;1.23;;;;;21.00;98620.00;;;;2069614;28;20218;-56
2023/11/28 02:32:57;;;;;;;9.70;1.53;;;;;21.00;98620.00;;;;2064683;28;20720;-56
2023/11/28 02:33:58;;;;;;;7.30;1.40;;;;;21.10;98622.00;;;;2060187;28;20853;-56
2023/11/28 02:34:58;;;;;;;4.45;1.20;;;;;21.20;98630.00;;;;2076885;28;20455;-56
2023/11/28 02:35:59;;;;;;;3.10;1.07;;;;;21.20;98637.00;;;;2080648;28;20743;-56
2023/11/28 02:36:59;;;;;;;5.93;0.90;;;;;21.20;98639.00;;;;2069075;28;20214;-57
2023/11/28 02:37:59;;;;;;;2.73;1.10;;;;;21.20;98629.00;;;;2069318;28;20210;-56
2023/11/28 02:39:00;;;;;;;2.30;0.90;;;;;21.20;98643.00;;;;2057757;28;20214;-55
2023/11/28 02:40:00;;;;;;;5.70;1.23;;;;;21.10;98627.00;;;;2068783;28;20214;-55
2023/11/28 02:41:00;;;;;;;6.50;1.10;;;;;21.10;98637.00;;;;2069914;28;20218;-56
2023/11/28 02:42:03;;;;;;;2.37;1.20;;;;;21.10;98634.00;;;;2067689;28;20220;-57
2023/11/28 02:43:03;;;;;;;2.45;1.10;;;;;21.10;98638.00;;;;2069175;28;20217;-57
2023/11/28 02:44:04;;;;;;;2.20;1.27;;;;;21.10;98645.00;;;;2061458;28;20222;-56
2023/11/28 02:45:06;;;;;;;2.78;1.70;;;;;21.10;98631.00;;;;2068069;28;20214;-56
2023/11/28 02:46:07;;;;;;;3.33;1.30;;;;;21.10;98622.00;;;;2066409;28;20229;-56
2023/11/28 02:47:07;;;;;;;1.90;1.20;;;;;21.10;98641.00;;;;2067170;28;20453;-57
2023/11/28 02:48:08;;;;;;;4.63;1.27;;;;;21.10;98644.00;;;;2065102;28;20484;-57
2023/11/28 02:49:09;;;;;;;3.33;1.20;;;;;21.10;98565.00;;;;2061079;28;20225;-56
2023/11/28 02:50:10;;;;;;;2.45;1.30;;;;;21.10;98639.00;;;;2074836;28;20980;-57
2023/11/28 02:51:19;;;;;;;5.10;1.43;;;;;21.10;98650.00;;;;2073430;28;20222;-56
2023/11/28 02:52:19;;;;;;;1.73;1.10;;;;;21.00;98651.00;;;;2069317;28;20686;-57
2023/11/28 02:53:19;;;;;;;2.40;1.27;;;;;21.00;98639.00;;;;2069451;28;20214;-58
2023/11/28 02:54:20;;;;;;;3.00;0.90;;;;;20.90;98648.00;;;;2062583;28;20244;-57
2023/11/28 02:55:21;;;;;;;1.40;1.03;;;;;20.90;98654.00;;;;2076818;28;20214;-56
2023/11/28 02:56:21;;;;;;;2.10;1.10;;;;;20.80;98660.00;;;;2073002;28;20461;-57
2023/11/28 02:57:22;;;;;;;1.50;1.10;;;;;20.80;98661.00;;;;2067147;28;20276;-57
2023/11/28 02:58:23;;;;;;;2.23;1.20;;;;;20.80;98664.00;;;;2069665;28;20218;-57
2023/11/28 02:59:23;;;;;;;3.83;1.40;;;;;20.80;98648.00;;;;2063182;28;20258;-57
2023/11/28 03:00:23;;;;;;;1.73;1.20;;;;;20.80;98658.00;;;;2077190;28;20224;-56
2023/11/28 03:01:24;;;;;;;2.00;0.90;;;;;20.70;98648.00;;;;2071619;28;20275;-57
2023/11/28 03:02:24;;;;;;;2.13;0.90;;;;;20.70;98658.00;;;;2067295;28;20284;-57
2023/11/28 03:03:25;;;;;;;1.40;1.00;;;;;20.70;98658.00;;;;2069724;28;20210;-57
2023/11/28 03:04:25;;;;;;;1.37;1.00;;;;;20.70;98669.00;;;;2060262;28;20214;-57
2023/11/28 03:05:26;;;;;;;3.70;1.10;;;;;20.70;98670.00;;;;2064657;28;20465;-56
2023/11/28 03:06:26;;;;;;;2.07;1.20;;;;;20.70;98663.00;;;;2064659;28;20310;-57
2023/11/28 03:07:27;;;;;;;1.83;1.17;;;;;20.70;98666.00;;;;2063164;28;20499;-57
2023/11/28 03:08:27;;;;;;;1.87;1.20;;;;;20.70;98672.00;;;;2075781;28;20320;-57
2023/11/28 03:09:27;;;;;;;1.43;1.03;;;;;20.60;98669.00;;;;2061289;28;20218;-57
2023/11/28 03:10:28;;;;;;;1.63;1.43;;;;;20.60;98669.00;;;;2058195;28;20233;-57
2023/11/28 03:11:28;;;;;;;1.80;1.20;;;;;20.60;98675.00;;;;2060129;28;20222;-57
2023/11/28 03:12:28;;;;;;;2.00;1.33;;;;;20.60;98679.00;;;;2060385;28;20214;-58
2023/11/28 03:13:29;;;;;;;3.03;2.20;;;;;20.60;98683.00;;;;2068325;28;20244;-57
2023/11/28 03:14:29;;;;;;;6.97;5.80;;;;;20.60;98683.00;;;;2059504;28;20209;-58
2023/11/28 03:15:29;;;;;;;14.87;11.30;;;;;20.60;98696.00;;;;2069636;28;20214;-56
2023/11/28 03:16:30;;;;;;;19.57;14.67;;;;;20.60;98689.00;;;;2066870;28;20266;-56
2023/11/28 03:17:32;;;;;;;20.40;15.23;;;;;20.60;98677.00;;;;2065504;28;20210;-57
2023/11/28 03:18:32;;;;;;;23.58;17.08;;;;;20.60;98697.00;;;;2067765;28;20224;-57
2023/11/28 03:19:36;;;;;;;29.10;21.00;;;;;20.60;98688.00;;;;2060749;28;20385;-57
2023/11/28 03:20:36;;;;;;;30.45;21.52;;;;;20.50;98695.00;;;;2068167;28;20213;-57
2023/11/28 03:21:39;;;;;;;28.00;20.73;;;;;20.50;98693.00;;;;2070006;28;20264;-56
2023/11/28 03:22:40;;;;;;;29.88;20.70;;;;;20.60;98699.00;;;;2059355;28;20222;-57
2023/11/28 03:23:41;;;;;;;31.13;23.52;;;;;20.50;98695.00;;;;2069754;28;20214;-57
2023/11/28 03:24:42;;;;;;;26.50;20.23;;;;;20.50;98696.00;;;;2061527;28;20202;-57
2023/11/28 03:25:42;;;;;;;28.10;20.20;;;;;20.50;98701.00;;;;2070004;28;20332;-58
2023/11/28 03:26:43;;;;;;;30.77;20.57;;;;;20.50;98705.00;;;;2068583;28;21866;-57
2023/11/28 03:27:44;;;;;;;26.37;18.80;;;;;20.50;98704.00;;;;2065913;28;20257;-57
2023/11/28 03:28:44;;;;;;;26.80;19.50;;;;;19.80;98716.00;;;;2071095;28;20512;-56
2023/11/28 03:29:44;;;;;;;27.77;18.50;;;;;20.50;98715.00;;;;2061486;28;20218;-58
2023/11/28 03:30:45;;;;;;;23.57;17.13;;;;;20.50;98705.00;;;;2070853;28;20222;-57
2023/11/28 03:31:45;;;;;;;26.00;19.00;;;;;20.40;98705.00;;;;2071220;28;20224;-57
2023/11/28 03:32:46;;;;;;;26.63;19.30;;;;;20.40;98718.00;;;;2064664;28;20229;-57
2023/11/28 03:33:46;;;;;;;23.03;17.97;;;;;20.40;98763.00;;;;2071073;28;20222;-57
2023/11/28 03:34:48;;;;;;;21.02;16.67;;;;;20.40;98721.00;;;;2063228;28;20264;-57
2023/11/28 03:35:48;;;;;;;26.77;17.30;;;;;20.40;98706.00;;;;2069866;28;21031;-58
2023/11/28 03:36:51;;;;;;;20.63;16.60;;;;;20.40;98717.00;;;;2070062;28;20217;-57
2023/11/28 03:37:51;;;;;;;26.77;16.23;;;;;20.40;98720.00;;;;2070488;28;20579;-55
2023/11/28 03:38:53;;;;;;;19.93;16.30;;;;;20.40;98729.00;;;;2061211;28;20225;-56
2023/11/28 03:39:54;;;;;;;22.20;15.85;;;;;20.40;98735.00;;;;2070648;28;20221;-57
2023/11/28 03:40:54;;;;;;;21.30;15.17;;;;;20.30;98726.00;;;;2070401;28;20220;-57
2023/11/28 03:41:55;;;;;;;21.50;16.10;;;;;20.40;98814.00;;;;2070207;28;20694;-56
2023/11/28 03:42:55;;;;;;;19.23;13.50;;;;;20.40;98734.00;;;;2068544;28;20769;-56
2023/11/28 03:43:55;;;;;;;20.10;14.07;;;;;20.40;98733.00;;;;2061122;28;20683;-59
2023/11/28 03:44:56;;;;;;;17.13;13.00;;;;;20.30;98728.00;;;;2069657;28;20221;-60
2023/11/28 03:45:56;;;;;;;17.77;13.10;;;;;20.30;98742.00;;;;2068700;28;20206;-58
2023/11/28 03:46:57;;;;;;;22.37;13.50;;;;;20.40;98737.00;;;;2067946;28;20225;-57
2023/11/28 03:47:57;;;;;;;18.40;12.87;;;;;20.30;98724.00;;;;2070756;28;20229;-57
2023/11/28 03:48:58;;;;;;;16.67;12.33;;;;;20.30;98744.00;;;;2060811;28;20202;-56
2023/11/28 03:49:59;;;;;;;18.20;12.70;;;;;20.30;98740.00;;;;2069227;28;20245;-56
2023/11/28 03:50:59;;;;;;;15.27;11.88;;;;;20.30;98779.00;;;;2071172;28;20214;-55
2023/11/28 03:52:00;;;;;;;15.33;11.43;;;;;20.30;98743.00;;;;2066975;28;20713;-56
2023/11/28 03:53:00;;;;;;;14.53;10.60;;;;;20.30;98746.00;;;;2071158;28;20687;-56
2023/11/28 03:54:00;;;;;;;13.10;10.37;;;;;20.30;98751.00;;;;2059782;28;20234;-56
2023/11/28 03:55:01;;;;;;;12.97;10.50;;;;;20.30;98751.00;;;;2070822;28;20226;-56
2023/11/28 03:56:06;;;;;;;13.03;9.03;;;;;20.30;98750.00;;;;2070974;28;20218;-57
2023/11/28 03:57:06;;;;;;;14.00;10.40;;;;;20.30;98742.00;;;;2067485;28;20978;-56
2023/11/28 03:58:07;;;;;;;13.37;9.30;;;;;20.30;98756.00;;;;2070972;28;20305;-58
2023/11/28 03:59:07;;;;;;;12.87;9.43;;;;;20.30;98760.00;;;;2060038;28;20230;-57
2023/11/28 04:00:09;;;;;;;12.00;9.27;;;;;20.30;98762.00;;;;2070774;28;20687;-57
2023/11/28 04:01:10;;;;;;;14.85;10.35;;;;;20.20;98760.00;;;;2070318;28;20219;-56
2023/11/28 04:02:10;;;;;;;17.10;13.33;;;;;20.20;98760.00;;;;2070270;28;20273;-56
2023/11/28 04:03:11;;;;;;;24.13;18.20;;;;;20.20;98765.00;;;;2055932;28;20210;-58
2023/11/28 04:04:12;;;;;;;27.08;20.38;;;;;20.30;98766.00;;;;2067779;28;20271;-57
2023/11/28 04:05:13;;;;;;;22.67;17.60;;;;;20.20;98756.00;;;;2076490;28;20214;-56
2023/11/28 04:06:13;;;;;;;19.80;14.90;;;;;20.20;98768.00;;;;2070054;28;20300;-58
2023/11/28 04:07:13;;;;;;;19.67;15.10;;;;;20.20;98757.00;;;;2068735;28;20237;-57
2023/11/28 04:08:14;;;;;;;19.10;13.83;;;;;20.20;98770.00;;;;2070838;28;22636;-57
2023/11/28 04:09:14;;;;;;;18.80;13.63;;;;;20.20;98762.00;;;;2053489;28;21292;-56
2023/11/28 04:10:15;;;;;;;18.70;13.30;;;;;20.20;98767.00;;;;2068968;28;20322;-56
2023/11/28 04:11:15;;;;;;;17.60;13.77;;;;;20.20;98757.00;;;;2070525;28;20210;-57
2023/11/28 04:12:15;;;;;;;15.23;12.80;;;;;20.20;98768.00;;;;2071092;28;20202;-57
2023/11/28 04:13:16;;;;;;;15.83;12.70;;;;;20.20;98773.00;;;;2068198;28;20225;-57
2023/11/28 04:14:17;;;;;;;16.40;11.50;;;;;20.20;98776.00;;;;2061447;28;20488;-56
2023/11/28 04:15:17;;;;;;;16.10;12.37;;;;;20.20;98780.00;;;;2070952;28;20284;-57
2023/11/28 04:16:18;;;;;;;14.47;10.53;;;;;20.20;98780.00;;;;2064314;28;20226;-57
2023/11/28 04:17:19;;;;;;;13.60;10.88;;;;;20.20;98778.00;;;;2070112;28;20221;-56
2023/11/28 04:18:19;;;;;;;13.30;10.90;;;;;20.20;98781.00;;;;2069378;28;20214;-56
2023/11/28 04:19:19;;;;;;;12.30;10.47;;;;;20.20;98781.00;;;;2061191;28;20696;-57
2023/11/28 04:20:20;;;;;;;12.87;10.30;;;;;20.20;98802.00;;;;2066539;28;20554;-57
2023/11/28 04:21:21;;;;;;;14.00;10.00;;;;;20.10;98797.00;;;;2070267;28;20317;-57
2023/11/28 04:22:21;;;;;;;10.90;9.05;;;;;20.20;98812.00;;;;2070939;28;20222;-57
2023/11/28 04:23:22;;;;;;;12.20;9.73;;;;;20.10;98796.00;;;;2069960;28;20674;-57
2023/11/28 04:24:22;;;;;;;10.17;8.70;;;;;20.10;98810.00;;;;2061348;28;20709;-58
2023/11/28 04:25:25;;;;;;;12.13;9.20;;;;;20.20;98806.00;;;;2070289;28;20293;-57
2023/11/28 04:26:26;;;;;;;12.55;8.20;;;;;20.20;98806.00;;;;2070577;28;20296;-57
2023/11/28 04:27:26;;;;;;;12.27;8.90;;;;;20.20;98814.00;;;;2069605;28;20264;-57
2023/11/28 04:28:28;;;;;;;9.87;8.73;;;;;20.10;98815.00;;;;2068972;28;20611;-57
2023/11/28 04:29:28;;;;;;;11.60;7.88;;;;;20.10;98816.00;;;;2060972;28;20244;-58
2023/11/28 04:30:29;;;;;;;10.20;7.83;;;;;20.10;98822.00;;;;2069176;28;20593;-57
2023/11/28 04:31:30;;;;;;;11.93;8.27;;;;;20.10;98824.00;;;;2071409;28;20610;-58
2023/11/28 04:32:30;;;;;;;9.02;6.55;;;;;20.20;98827.00;;;;2069568;28;20217;-59
2023/11/28 04:33:31;;;;;;;11.17;7.53;;;;;20.10;98836.00;;;;2070305;28;20240;-59
2023/11/28 04:34:31;;;;;;;9.10;7.50;;;;;20.20;98824.00;;;;2061131;28;20226;-59
2023/11/28 04:35:31;;;;;;;8.53;6.83;;;;;20.10;98828.00;;;;2070153;28;20215;-59
2023/11/28 04:36:32;;;;;;;9.20;6.50;;;;;20.10;98828.00;;;;2069905;28;20218;-56
2023/11/28 04:37:32;;;;;;;11.20;7.30;;;;;20.10;98828.00;;;;2069789;28;20337;-56
2023/11/28 04:38:33;;;;;;;10.73;7.30;;;;;20.10;98837.00;;;;2068735;28;20235;-57
2023/11/28 04:39:33;;;;;;;8.67;6.50;;;;;20.10;98836.00;;;;2060478;28;20210;-57
2023/11/28 04:40:34;;;;;;;9.40;6.27;;;;;20.10;98839.00;;;;2070599;28;20214;-57
2023/11/28 04:41:34;;;;;;;7.70;6.43;;;;;20.10;98834.00;;;;2070093;28;20206;-56
2023/11/28 04:42:35;;;;;;;8.47;5.93;;;;;20.10;98832.00;;;;2070329;28;20236;-57
2023/11/28 04:43:35;;;;;;;8.80;7.00;;;;;20.10;98841.00;;;;2068886;28;20218;-56
2023/11/28 04:44:36;;;;;;;7.73;6.33;;;;;20.10;98835.00;;;;2059380;28;20932;-58
2023/11/28 04:45:36;;;;;;;7.97;6.90;;;;;20.00;98837.00;;;;2069607;28;20233;-57
2023/11/28 04:46:36;;;;;;;7.97;6.53;;;;;20.00;98896.00;;;;2067845;28;20213;-56
2023/11/28 04:47:38;;;;;;;7.13;5.73;;;;;20.00;98838.00;;;;2070648;28;20742;-56
2023/11/28 04:48:39;;;;;;;8.30;6.35;;;;;20.00;98849.00;;;;2070149;28;20222;-57
2023/11/28 04:49:39;;;;;;;6.50;5.67;;;;;20.00;98844.00;;;;2060425;28;20301;-57
2023/11/28 04:50:39;;;;;;;8.30;5.80;;;;;20.00;98850.00;;;;2070640;28;20221;-57
2023/11/28 04:51:40;;;;;;;6.83;5.20;;;;;20.00;98864.00;;;;2069009;28;20224;-57
2023/11/28 04:52:40;;;;;;;8.00;6.10;;;;;20.00;98860.00;;;;2070650;28;20576;-58
2023/11/28 04:53:40;;;;;;;6.77;5.80;;;;;20.00;98860.00;;;;2070601;28;20202;-57
2023/11/28 04:54:41;;;;;;;6.57;4.90;;;;;20.00;98860.00;;;;2055325;28;20257;-56
2023/11/28 04:55:41;;;;;;;6.60;5.27;;;;;20.00;98860.00;;;;2070749;28;20745;-56
2023/11/28 04:56:41;;;;;;;6.23;4.87;;;;;20.00;98861.00;;;;2062136;28;20696;-57
2023/11/28 04:57:43;;;;;;;7.13;5.30;;;;;20.00;98876.00;;;;2070727;28;20737;-57
2023/11/28 04:58:43;;;;;;;5.78;5.00;;;;;20.00;98863.00;;;;2069363;28;20202;-56
2023/11/28 04:59:43;;;;;;;6.97;5.33;;;;;20.00;98876.00;;;;2060201;28;20206;-56
2023/11/28 05:00:44;;;;;;;5.53;4.70;;;;;20.00;98879.00;;;;2070079;28;20734;-57
2023/11/28 05:01:45;;;;;;;6.03;4.90;;;;;20.00;98882.00;;;;2069069;28;20717;-57